createdAt,value
2018-12-25T00:04:53.812Z,4.00
2018-12-25T00:07:35.029Z,3.57
2018-12-25T00:21:19.514Z,3.37
2018-12-25T00:29:35.250Z,3.90
2018-12-25T00:37:44.106Z,4.10
2018-12-25T00:40:27.846Z,3.70
2018-12-25T00:48:44.260Z,3.80
2018-12-25T00:51:25.826Z,3.92
2018-12-25T00:54:06.455Z,4.00
2018-12-25T00:56:47.744Z,4.00
2018-12-25T00:59:29.317Z,3.95
2018-12-25T01:02:10.723Z,3.87
2018-12-25T01:04:51.431Z,3.85
2018-12-25T01:07:32.284Z,4.28
2018-12-25T01:10:13.610Z,3.20
2018-12-25T01:12:54.404Z,3.70
2018-12-25T01:15:35.523Z,4.17
2018-12-25T01:18:16.374Z,4.53
2018-12-25T01:20:57.041Z,4.03
2018-12-25T01:23:38.141Z,4.35
2018-12-25T01:26:18.523Z,3.80
2018-12-25T01:28:59.658Z,4.15
2018-12-25T01:31:40.696Z,4.20
2018-12-25T01:34:21.652Z,4.10
2018-12-25T01:37:02.051Z,4.50
2018-12-25T01:39:42.706Z,3.75
2018-12-25T01:42:23.114Z,3.90
2018-12-25T01:45:03.972Z,3.72
2018-12-25T01:47:44.793Z,4.03
2018-12-25T01:50:25.216Z,4.33
2018-12-25T01:53:06.166Z,3.45
2018-12-25T01:55:46.529Z,3.83
2018-12-25T01:58:27.473Z,3.72
2018-12-25T02:01:08.015Z,3.70
2018-12-25T02:03:48.683Z,3.70
2018-12-25T02:06:29.699Z,3.80
2018-12-25T02:09:10.627Z,3.70
2018-12-25T02:11:51.099Z,4.00
2018-12-25T02:14:31.926Z,3.70
2018-12-25T02:17:13.159Z,3.93
2018-12-25T02:19:54.232Z,3.58
2018-12-25T02:22:35.647Z,4.27
2018-12-25T02:25:17.156Z,4.00
2018-12-25T02:27:57.862Z,3.35
2018-12-25T02:30:39.355Z,3.83
2018-12-25T02:33:19.952Z,3.70
2018-12-25T02:36:01.169Z,3.70
2018-12-25T02:38:42.216Z,3.83
2018-12-25T02:41:22.748Z,4.13
2018-12-25T02:44:03.377Z,3.87
2018-12-25T02:46:44.701Z,4.10
2018-12-25T02:49:25.887Z,3.85
2018-12-25T02:52:06.364Z,4.12
2018-12-25T02:54:47.461Z,4.15
2018-12-25T02:57:28.780Z,4.37
2018-12-25T03:00:09.834Z,3.58
2018-12-25T03:02:50.739Z,3.80
2018-12-25T03:05:31.518Z,4.58
2018-12-25T03:08:12.527Z,4.00
2018-12-25T03:10:53.228Z,3.70
2018-12-25T03:13:34.391Z,3.60
2018-12-25T03:16:14.987Z,3.90
2018-12-25T03:18:55.683Z,3.95
2018-12-25T03:21:37.079Z,3.80
2018-12-25T03:24:17.453Z,3.60
2018-12-25T03:26:57.887Z,3.92
2018-12-25T03:29:38.859Z,3.95
2018-12-25T03:32:19.945Z,3.90
2018-12-25T03:35:00.771Z,3.85
2018-12-25T03:37:41.635Z,3.63
2018-12-25T03:40:22.018Z,3.80
2018-12-25T03:43:02.883Z,4.12
2018-12-25T03:45:43.959Z,3.80
2018-12-25T03:48:24.587Z,3.62
2018-12-25T03:51:04.975Z,3.57
2018-12-25T03:53:45.892Z,4.83
2018-12-25T03:56:27.117Z,4.50
2018-12-25T03:59:07.863Z,3.85
2018-12-25T04:01:49.128Z,3.87
2018-12-25T04:04:30.077Z,4.17
2018-12-25T04:07:10.511Z,4.27
2018-12-25T04:09:50.980Z,3.80
2018-12-25T04:12:31.392Z,3.80
2018-12-25T04:18:01.572Z,4.17
2018-12-25T04:20:43.223Z,4.33
2018-12-25T04:26:10.664Z,4.03
2018-12-25T04:31:40.379Z,3.33
2018-12-25T04:37:07.297Z,3.90
2018-12-25T04:39:47.698Z,4.25
2018-12-25T04:42:31.329Z,3.73
2018-12-25T04:47:58.832Z,3.92
2018-12-25T04:50:41.221Z,4.13
2018-12-25T04:53:21.885Z,3.92
2018-12-25T04:56:02.263Z,3.60
2018-12-25T04:58:43.359Z,3.95
2018-12-25T05:01:24.538Z,3.85
2018-12-25T05:04:05.453Z,4.00
2018-12-25T05:09:29.087Z,4.17
2018-12-25T05:20:28.267Z,4.40
2018-12-25T05:23:09.101Z,3.80
2018-12-25T05:28:38.798Z,4.03
2018-12-25T05:31:20.003Z,4.00
2018-12-25T05:34:00.888Z,3.98
2018-12-25T05:36:42.122Z,3.45
2018-12-25T05:39:22.870Z,3.60
2018-12-25T05:42:03.562Z,3.80
2018-12-25T05:44:44.295Z,3.42
2018-12-25T05:47:24.701Z,3.87
2018-12-25T05:50:05.458Z,3.70
2018-12-25T05:52:46.158Z,3.85
2018-12-25T05:55:26.715Z,3.27
2018-12-25T05:58:07.332Z,4.10
2018-12-25T06:00:48.494Z,3.70
2018-12-25T06:03:29.092Z,3.72
2018-12-25T06:06:09.407Z,3.70
2018-12-25T06:08:50.415Z,4.00
2018-12-25T06:11:31.454Z,3.87
2018-12-25T06:14:12.038Z,4.17
2018-12-25T06:16:53.355Z,4.07
2018-12-25T06:19:34.203Z,3.85
2018-12-25T06:22:14.875Z,4.00
2018-12-25T06:24:55.731Z,4.10
2018-12-25T06:27:36.086Z,3.55
2018-12-25T06:30:16.690Z,3.77
2018-12-25T06:32:57.546Z,3.77
2018-12-25T06:35:37.994Z,4.05
2018-12-25T06:38:18.850Z,3.55
2018-12-25T06:40:59.535Z,3.73
2018-12-25T06:43:40.205Z,3.35
2018-12-25T06:46:20.943Z,3.40
2018-12-25T06:49:01.713Z,3.72
2018-12-25T06:51:42.252Z,3.60
2018-12-25T06:54:22.990Z,4.12
2018-12-25T06:57:03.615Z,3.10
2018-12-25T06:59:44.512Z,3.52
2018-12-25T07:02:25.662Z,3.58
2018-12-25T07:05:06.202Z,3.52
2018-12-25T07:07:47.040Z,4.03
2018-12-25T07:10:28.122Z,3.42
2018-12-25T07:13:08.529Z,3.60
2018-12-25T07:15:49.751Z,3.57
2018-12-25T07:18:30.432Z,3.50
2018-12-25T07:21:12.274Z,3.60
2018-12-25T07:23:52.980Z,3.52
2018-12-25T07:26:33.670Z,3.83
2018-12-25T07:29:14.963Z,3.92
2018-12-25T07:31:43.979Z,3.40
2018-12-25T07:34:32.126Z,4.08
2018-12-25T07:37:20.179Z,3.43
2018-12-25T07:40:08.290Z,4.20
2018-12-25T07:42:56.325Z,3.85
2018-12-25T07:45:44.348Z,3.75
2018-12-25T07:48:26.731Z,4.72
2018-12-25T07:51:07.374Z,3.93
2018-12-25T07:53:48.375Z,3.70
2018-12-25T07:56:29.469Z,3.75
2018-12-25T07:59:10.094Z,3.77
2018-12-25T08:01:51.279Z,3.20
2018-12-25T08:04:32.631Z,3.35
2018-12-25T08:07:13.106Z,3.55
2018-12-25T08:09:53.691Z,3.55
2018-12-25T08:12:34.251Z,3.50
2018-12-25T08:15:15.078Z,3.10
2018-12-25T08:17:55.862Z,3.22
2018-12-25T08:20:36.851Z,2.90
2018-12-25T08:23:18.407Z,3.50
2018-12-25T08:25:47.220Z,3.42
2018-12-25T08:28:35.298Z,3.75
2018-12-25T08:31:23.911Z,3.67
2018-12-25T08:33:52.765Z,4.30
2018-12-25T08:36:40.859Z,3.90
2018-12-25T08:39:29.182Z,4.40
2018-12-25T08:42:17.320Z,3.63
2018-12-25T08:45:05.589Z,4.47
2018-12-25T08:47:53.619Z,4.15
2018-12-25T08:50:34.065Z,4.20
2018-12-25T08:56:00.479Z,4.07
2018-12-25T08:58:41.720Z,4.22
2018-12-25T09:01:22.966Z,4.43
2018-12-25T09:04:04.008Z,4.85
2018-12-25T09:06:47.799Z,4.93
2018-12-25T09:12:11.964Z,4.62
2018-12-25T09:17:36.540Z,4.23
2018-12-25T09:20:16.879Z,4.00
2018-12-25T09:22:58.846Z,4.08
2018-12-25T09:28:23.185Z,3.72
2018-12-25T09:33:50.380Z,4.30
2018-12-25T09:39:14.627Z,4.47
2018-12-25T09:44:38.366Z,3.90
2018-12-25T09:55:37.552Z,3.52
2018-12-25T10:01:07.974Z,3.90
2018-12-25T10:06:32.103Z,4.30
2018-12-25T10:14:41.707Z,4.53
2018-12-25T10:17:22.091Z,4.10
2018-12-25T10:20:03.315Z,4.62
2018-12-25T10:22:43.887Z,4.37
2018-12-25T10:25:12.831Z,4.58
2018-12-25T10:28:01.153Z,4.25
2018-12-25T10:30:49.427Z,4.37
2018-12-25T10:33:37.777Z,4.17
2018-12-25T10:36:25.915Z,8.67
2018-12-25T10:39:13.955Z,7.55
2018-12-25T10:42:02.079Z,5.28
2018-12-25T10:44:50.374Z,4.92
2018-12-25T10:47:38.658Z,5.10
2018-12-25T10:50:18.082Z,6.58
2018-12-25T10:53:06.466Z,5.50
2018-12-25T10:55:54.624Z,5.03
2018-12-25T10:58:42.939Z,4.87
2018-12-25T11:01:32.586Z,4.80
2018-12-25T11:04:20.919Z,5.17
2018-12-25T11:07:08.974Z,4.73
2018-12-25T11:09:57.030Z,4.58
2018-12-25T11:12:45.377Z,4.60
2018-12-25T11:15:14.275Z,5.03
2018-12-25T11:18:02.863Z,5.08
2018-12-25T11:20:51.287Z,4.70
2018-12-25T11:23:39.578Z,4.92
2018-12-25T11:29:35.187Z,4.95
2018-12-25T11:32:23.351Z,4.97
2018-12-25T11:35:11.470Z,5.15
2018-12-25T11:37:59.501Z,5.30
2018-12-25T11:40:47.603Z,4.62
2018-12-25T11:43:35.663Z,5.03
2018-12-25T11:46:23.957Z,6.17
2018-12-25T11:49:12.060Z,5.33
2018-12-25T11:51:53.272Z,5.23
2018-12-25T11:54:34.207Z,5.30
2018-12-25T11:57:15.005Z,6.30
2018-12-25T11:59:56.179Z,5.95
2018-12-25T12:02:37.478Z,5.50
2018-12-25T12:05:17.903Z,6.22
2018-12-25T12:07:58.833Z,5.25
2018-12-25T12:10:39.228Z,5.70
2018-12-25T12:13:20.180Z,6.17
2018-12-25T12:16:02.575Z,5.87
2018-12-25T12:18:42.987Z,5.70
2018-12-25T12:21:23.451Z,5.53
2018-12-25T12:24:04.296Z,5.90
2018-12-25T12:26:45.431Z,5.77
2018-12-25T12:29:27.406Z,6.40
2018-12-25T12:32:08.891Z,5.90
2018-12-25T12:34:49.223Z,5.83
2018-12-25T12:37:30.758Z,5.87
2018-12-25T12:40:11.263Z,5.45
2018-12-25T12:42:51.922Z,5.92
2018-12-25T12:45:32.910Z,5.85
2018-12-25T12:48:13.616Z,6.25
2018-12-25T12:50:54.391Z,6.63
2018-12-25T12:53:35.367Z,6.22
2018-12-25T12:56:16.663Z,6.92
2018-12-25T12:58:57.406Z,6.45
2018-12-25T13:01:37.992Z,6.85
2018-12-25T13:04:06.961Z,6.42
2018-12-25T13:06:55.008Z,6.83
2018-12-25T13:09:43.146Z,6.92
2018-12-25T13:12:31.191Z,5.43
2018-12-25T13:15:19.339Z,6.70
2018-12-25T13:18:07.498Z,7.80
2018-12-25T13:20:55.545Z,6.70
2018-12-25T13:23:43.579Z,5.97
2018-12-25T13:26:31.639Z,6.10
2018-12-25T13:32:27.309Z,6.17
2018-12-25T13:35:15.391Z,6.17
2018-12-25T13:38:03.555Z,5.92
2018-12-25T13:40:51.652Z,6.17
2018-12-25T13:43:39.949Z,5.75
2018-12-25T13:46:27.966Z,6.43
2018-12-25T13:52:02.998Z,5.63
2018-12-25T13:54:43.608Z,5.95
2018-12-25T14:00:10.580Z,5.10
2018-12-25T14:02:51.095Z,5.78
2018-12-25T14:08:13.856Z,5.80
2018-12-25T14:10:54.728Z,5.30
2018-12-25T14:16:18.781Z,5.28
2018-12-25T14:21:43.708Z,4.92
2018-12-25T14:24:24.823Z,4.90
2018-12-25T14:27:05.380Z,4.87
2018-12-25T14:29:48.878Z,4.95
2018-12-25T14:35:17.520Z,5.10
2018-12-25T14:43:30.251Z,3.98
2018-12-25T14:48:55.047Z,4.60
2018-12-25T14:54:24.976Z,4.30
2018-12-25T15:00:01.940Z,4.40
2018-12-25T15:02:50.243Z,4.67
2018-12-25T15:05:38.621Z,5.03
2018-12-25T15:08:26.934Z,5.45
2018-12-25T15:11:15.098Z,5.63
2018-12-25T15:14:03.122Z,5.70
2018-12-25T15:16:51.176Z,5.33
2018-12-25T15:19:39.524Z,5.10
2018-12-25T15:22:27.656Z,5.70
2018-12-25T15:25:16.064Z,5.80
2018-12-25T15:28:04.211Z,6.50
2018-12-25T15:30:52.303Z,6.13
2018-12-25T15:33:40.330Z,5.65
2018-12-25T15:36:28.388Z,6.30
2018-12-25T15:39:16.412Z,5.53
2018-12-25T15:42:04.440Z,5.87
2018-12-25T15:44:52.557Z,5.58
2018-12-25T15:47:40.635Z,5.63
2018-12-25T15:50:28.974Z,5.67
2018-12-25T15:53:09.787Z,5.30
2018-12-25T15:55:50.162Z,5.07
2018-12-25T15:58:30.938Z,5.72
2018-12-25T16:01:11.679Z,5.57
2018-12-25T16:03:52.698Z,5.72
2018-12-25T16:06:33.334Z,5.73
2018-12-25T16:09:14.231Z,6.00
2018-12-25T16:11:54.580Z,5.43
2018-12-25T16:14:35.540Z,6.25
2018-12-25T16:17:16.302Z,5.37
2018-12-25T16:19:56.680Z,5.28
2018-12-25T16:22:37.920Z,6.47
2018-12-25T16:25:18.325Z,5.33
2018-12-25T16:28:06.344Z,5.30
2018-12-25T16:30:54.824Z,6.28
2018-12-25T16:33:42.938Z,5.58
2018-12-25T16:36:30.985Z,6.67
2018-12-25T16:39:18.988Z,6.33
2018-12-25T16:42:07.146Z,6.53
2018-12-25T16:44:55.486Z,5.72
2018-12-25T16:47:43.637Z,5.03
2018-12-25T16:50:31.692Z,5.62
2018-12-25T16:53:20.117Z,5.08
2018-12-25T16:56:08.202Z,5.93
2018-12-25T17:01:50.572Z,6.50
2018-12-25T17:04:38.608Z,6.12
2018-12-25T17:07:18.978Z,6.47
2018-12-25T17:09:59.951Z,7.20
2018-12-25T17:12:40.250Z,6.97
2018-12-25T17:15:20.931Z,6.97
2018-12-25T17:18:01.732Z,7.47
2018-12-25T17:20:42.302Z,6.77
2018-12-25T17:23:23.536Z,7.05
2018-12-25T17:26:04.155Z,5.97
2018-12-25T17:28:44.943Z,6.40
2018-12-25T17:31:25.344Z,6.20
2018-12-25T17:34:06.426Z,6.33
2018-12-25T17:36:47.979Z,6.58
2018-12-25T17:39:29.039Z,5.58
2018-12-25T17:42:09.404Z,5.93
2018-12-25T17:44:50.001Z,5.97
2018-12-25T17:47:30.891Z,5.23
2018-12-25T17:50:11.895Z,5.80
2018-12-25T17:52:52.662Z,5.80
2018-12-25T17:55:33.152Z,6.28
2018-12-25T17:58:14.350Z,5.67
2018-12-25T18:00:55.582Z,5.53
2018-12-25T18:03:36.687Z,6.30
2018-12-25T18:06:17.422Z,4.93
2018-12-25T18:08:58.088Z,5.87
2018-12-25T18:11:39.458Z,5.23
2018-12-25T18:14:20.296Z,5.70
2018-12-25T18:17:00.859Z,5.50
2018-12-25T18:19:41.592Z,4.85
2018-12-25T18:22:22.022Z,5.87
2018-12-25T18:25:02.820Z,5.53
2018-12-25T18:27:43.520Z,9.53
2018-12-25T18:30:27.188Z,9.35
2018-12-25T18:33:08.754Z,7.60
2018-12-25T18:35:50.075Z,6.27
2018-12-25T18:41:13.771Z,6.20
2018-12-25T18:46:37.774Z,5.43
2018-12-25T18:54:53.992Z,5.67
2018-12-25T18:57:35.456Z,6.10
2018-12-25T19:00:15.153Z,7.80
2018-12-25T19:02:59.463Z,8.25
2018-12-25T19:08:22.318Z,7.80
2018-12-25T19:11:03.419Z,7.33
2018-12-25T19:13:44.333Z,6.40
2018-12-25T19:16:13.245Z,6.03
2018-12-25T19:18:42.077Z,6.08
2018-12-25T19:21:11.096Z,6.23
2018-12-25T19:23:50.487Z,6.03
2018-12-25T19:26:19.414Z,6.58
2018-12-25T19:29:07.964Z,6.45
2018-12-25T19:31:55.991Z,6.80
2018-12-25T19:34:44.161Z,7.72
2018-12-25T19:37:32.308Z,7.87
2018-12-25T19:40:20.818Z,8.38
2018-12-25T19:43:08.951Z,10.08
2018-12-25T19:45:57.281Z,9.97
2018-12-25T19:48:45.308Z,8.65
2018-12-25T19:51:33.663Z,8.03
2018-12-25T19:54:14.813Z,7.83
2018-12-25T19:56:55.311Z,7.90
2018-12-25T19:59:36.104Z,7.47
2018-12-25T20:02:16.642Z,7.37
2018-12-25T20:04:57.463Z,7.72
2018-12-25T20:07:38.226Z,8.18
2018-12-25T20:10:19.168Z,7.67
2018-12-25T20:12:59.998Z,7.62
2018-12-25T20:15:40.959Z,6.97
2018-12-25T20:18:21.782Z,7.50
2018-12-25T20:21:02.260Z,8.30
2018-12-25T20:23:43.181Z,7.75
2018-12-25T20:26:23.907Z,7.47
2018-12-25T20:29:04.646Z,7.62
2018-12-25T20:31:45.124Z,8.00
2018-12-25T20:34:26.009Z,10.08
2018-12-25T20:37:06.423Z,8.53
2018-12-25T20:39:47.498Z,11.55
2018-12-25T20:42:28.302Z,11.43
2018-12-25T20:45:09.250Z,11.70
2018-12-25T20:47:49.653Z,16.82
2018-12-25T20:50:30.224Z,15.83
2018-12-25T20:53:10.890Z,14.58
2018-12-25T20:55:51.298Z,14.47
2018-12-25T20:58:31.752Z,15.03
2018-12-25T21:01:12.974Z,13.48
2018-12-25T21:03:53.582Z,14.15
2018-12-25T21:06:34.671Z,12.93
2018-12-25T21:09:15.504Z,12.00
2018-12-25T21:11:56.831Z,12.97
2018-12-25T21:14:37.771Z,13.62
2018-12-25T21:17:18.931Z,14.87
2018-12-25T21:19:59.766Z,15.90
2018-12-25T21:22:40.158Z,14.13
2018-12-25T21:25:20.936Z,13.15
2018-12-25T21:28:01.738Z,14.20
2018-12-25T21:30:42.254Z,12.53
2018-12-25T21:33:22.950Z,12.15
2018-12-25T21:36:03.671Z,12.53
2018-12-25T21:38:44.303Z,13.68
2018-12-25T21:41:24.990Z,12.00
2018-12-25T21:44:04.443Z,14.07
2018-12-25T21:46:52.819Z,14.20
2018-12-25T21:52:50.422Z,13.72
2018-12-25T21:55:30.960Z,13.43
2018-12-25T21:58:11.946Z,12.60
2018-12-25T22:00:52.760Z,11.87
2018-12-25T22:03:33.444Z,12.63
2018-12-25T22:06:14.312Z,12.07
2018-12-25T22:08:54.954Z,11.28
2018-12-25T22:11:36.043Z,12.37
2018-12-25T22:14:16.580Z,11.55
2018-12-25T22:16:57.296Z,12.73
2018-12-25T22:19:38.490Z,10.95
2018-12-25T22:22:19.027Z,12.40
2018-12-25T22:24:59.823Z,12.25
2018-12-25T22:27:40.397Z,12.25
2018-12-25T22:30:21.231Z,11.12
2018-12-25T22:33:02.050Z,11.55
2018-12-25T22:35:42.663Z,10.30
2018-12-25T22:38:23.492Z,11.80
2018-12-25T22:41:04.129Z,10.63
2018-12-25T22:43:44.942Z,10.40
2018-12-25T22:46:25.587Z,10.03
2018-12-25T22:49:07.225Z,9.98
2018-12-25T22:51:48.326Z,10.05
2018-12-25T22:54:17.359Z,9.40
2018-12-25T22:57:05.406Z,8.77
2018-12-25T22:59:53.490Z,8.98
2018-12-25T23:02:41.939Z,8.33
2018-12-25T23:08:29.023Z,9.18
2018-12-25T23:11:17.197Z,8.87
2018-12-25T23:14:05.437Z,9.65
2018-12-25T23:16:53.557Z,10.20
2018-12-25T23:19:41.626Z,9.68
2018-12-25T23:22:29.734Z,9.50
2018-12-25T23:25:17.811Z,9.58
2018-12-25T23:28:05.881Z,11.93
2018-12-25T23:30:54.286Z,9.43
2018-12-25T23:33:42.694Z,9.70
2018-12-25T23:36:30.865Z,9.30
2018-12-25T23:39:19.015Z,9.75
2018-12-25T23:42:07.121Z,9.33
2018-12-25T23:44:55.533Z,8.43
2018-12-25T23:47:43.597Z,9.20
2018-12-25T23:50:31.652Z,10.15
2018-12-25T23:53:19.759Z,10.03
2018-12-25T23:56:00.601Z,9.60
2018-12-25T23:58:41.703Z,12.10
